SBRJ/SDU METAR and TAF weather

Enter ICAO airport designator
Station Type Date Time Source
SBRJ METAR 2020/07/12 02:00 UTC NOAA

SBRJ 120200Z 32005KT CAVOK 23/17 Q1015


Station Type Date Time Source
SBRJ Decoded METAR 2020/07/12 02:00 UTC NOAA

Rio De Janeiro Aeroporto , Brazil (SBRJ) 22-54S 043-10W
Jul 11, 2020 - 10:00 PM EDT / 2020.07.12 0200 UTC
Wind: from the NW (320 degrees) at 6 MPH (5 KT):0
Visibility: greater than 7 mile(s):0
Temperature: 73 F (23 C)
Dew Point: 62 F (17 C)
Relative Humidity: 68%
Pressure (altimeter): 29.97 in. Hg (1015 hPa)
ob: SBRJ 120200Z 32005KT CAVOK 23/17 Q1015
cycle: 2

Station Type Date Time Source
SBRJ TAF 2020/07/12 00:42 UTC NOAA

TAF SBRJ 112100Z 1200/1212 03010KT CAVOK TN20/1206Z TX25/1212Z
RMK PDZ

Example: see airport list